sensor_id;sensor_type;location;lat;lon;timestamp;pressure;altitude;pressure_sealevel;temperature;humidity
76022;BME280;64718;52.124;6.226;2022-12-24T00:02:20;100463.13;;;9.28;91.75
76022;BME280;64718;52.124;6.226;2022-12-24T00:04:47;100463.13;;;9.28;91.46
76022;BME280;64718;52.124;6.226;2022-12-24T00:07:13;100471.00;;;9.27;91.42
76022;BME280;64718;52.124;6.226;2022-12-24T00:09:40;100463.38;;;9.22;91.68
76022;BME280;64718;52.124;6.226;2022-12-24T00:12:06;100475.44;;;9.23;91.53
76022;BME280;64718;52.124;6.226;2022-12-24T00:14:33;100471.28;;;9.19;91.38
76022;BME280;64718;52.124;6.226;2022-12-24T00:17:01;100483.69;;;9.33;90.39
76022;BME280;64718;52.124;6.226;2022-12-24T00:19:27;100489.81;;;9.32;90.18
76022;BME280;64718;52.124;6.226;2022-12-24T00:21:54;100488.34;;;9.25;90.88
76022;BME280;64718;52.124;6.226;2022-12-24T00:24:20;100497.94;;;9.23;90.88
76022;BME280;64718;52.124;6.226;2022-12-24T00:26:47;100501.28;;;9.26;90.42
76022;BME280;64718;52.124;6.226;2022-12-24T00:29:13;100496.81;;;9.30;90.11
76022;BME280;64718;52.124;6.226;2022-12-24T00:31:40;100502.19;;;9.25;90.29
76022;BME280;64718;52.124;6.226;2022-12-24T00:34:08;100496.38;;;9.18;91.47
76022;BME280;64718;52.124;6.226;2022-12-24T00:36:34;100500.25;;;9.30;90.54
76022;BME280;64718;52.124;6.226;2022-12-24T00:39:01;100501.88;;;9.33;89.47
76022;BME280;64718;52.124;6.226;2022-12-24T00:41:28;100513.28;;;9.29;90.18
76022;BME280;64718;52.124;6.226;2022-12-24T00:43:56;100503.19;;;9.21;90.72
76022;BME280;64718;52.124;6.226;2022-12-24T00:46:23;100523.84;;;9.24;90.56
76022;BME280;64718;52.124;6.226;2022-12-24T00:48:50;100518.72;;;9.23;90.56
76022;BME280;64718;52.124;6.226;2022-12-24T00:51:18;100525.34;;;9.30;89.82
76022;BME280;64718;52.124;6.226;2022-12-24T00:53:45;100527.47;;;9.20;90.99
76022;BME280;64718;52.124;6.226;2022-12-24T00:56:12;100518.06;;;9.17;90.77
76022;BME280;64718;52.124;6.226;2022-12-24T00:58:38;100532.78;;;9.17;90.79
76022;BME280;64718;52.124;6.226;2022-12-24T01:01:05;100542.13;;;9.21;89.92
76022;BME280;64718;52.124;6.226;2022-12-24T01:03:31;100551.72;;;9.19;90.40
76022;BME280;64718;52.124;6.226;2022-12-24T01:06:01;100551.59;;;9.22;90.01
76022;BME280;64718;52.124;6.226;2022-12-24T01:08:29;100562.03;;;9.20;89.80
76022;BME280;64718;52.124;6.226;2022-12-24T01:10:55;100570.06;;;9.14;90.25
76022;BME280;64718;52.124;6.226;2022-12-24T01:13:22;100579.75;;;9.11;90.35
76022;BME280;64718;52.124;6.226;2022-12-24T01:15:49;100574.56;;;9.11;90.64
76022;BME280;64718;52.124;6.226;2022-12-24T01:18:16;100578.06;;;9.10;90.66
76022;BME280;64718;52.124;6.226;2022-12-24T01:20:43;100579.09;;;9.06;90.32
76022;BME280;64718;52.124;6.226;2022-12-24T01:23:09;100587.66;;;9.08;90.09
76022;BME280;64718;52.124;6.226;2022-12-24T01:25:38;100587.47;;;9.12;90.03
76022;BME280;64718;52.124;6.226;2022-12-24T01:28:05;100599.72;;;9.09;89.96
76022;BME280;64718;52.124;6.226;2022-12-24T01:30:31;100605.69;;;9.11;90.16
76022;BME280;64718;52.124;6.226;2022-12-24T01:32:58;100611.66;;;9.13;89.78
76022;BME280;64718;52.124;6.226;2022-12-24T01:35:25;100609.38;;;9.05;90.08
76022;BME280;64718;52.124;6.226;2022-12-24T01:37:51;100601.78;;;9.01;89.94
76022;BME280;64718;52.124;6.226;2022-12-24T01:40:18;100613.00;;;9.01;90.23
76022;BME280;64718;52.124;6.226;2022-12-24T01:43:11;100627.22;;;8.91;90.68
76022;BME280;64718;52.124;6.226;2022-12-24T01:45:50;100612.28;;;8.98;89.94
76022;BME280;64718;52.124;6.226;2022-12-24T01:48:33;100620.47;;;8.87;91.03
76022;BME280;64718;52.124;6.226;2022-12-24T01:51:05;100614.50;;;8.85;90.28
76022;BME280;64718;52.124;6.226;2022-12-24T01:53:33;100618.50;;;8.72;90.70
76022;BME280;64718;52.124;6.226;2022-12-24T01:56:03;100634.31;;;8.64;91.31
76022;BME280;64718;52.124;6.226;2022-12-24T01:58:33;100623.94;;;8.64;91.31
76022;BME280;64718;52.124;6.226;2022-12-24T02:01:01;100630.66;;;8.70;91.00
76022;BME280;64718;52.124;6.226;2022-12-24T02:03:28;100636.91;;;8.64;90.96
76022;BME280;64718;52.124;6.226;2022-12-24T02:05:56;100633.19;;;8.48;91.96
76022;BME280;64718;52.124;6.226;2022-12-24T02:08:23;100644.19;;;8.54;91.21
76022;BME280;64718;52.124;6.226;2022-12-24T02:11:08;100639.44;;;8.42;92.10
76022;BME280;64718;52.124;6.226;2022-12-24T02:13:36;100649.03;;;8.40;92.17
76022;BME280;64718;52.124;6.226;2022-12-24T02:16:09;100664.03;;;8.31;92.32
76022;BME280;64718;52.124;6.226;2022-12-24T02:18:46;100651.97;;;8.30;92.34
76022;BME280;64718;52.124;6.226;2022-12-24T02:24:39;100664.19;;;8.26;92.35
76022;BME280;64718;52.124;6.226;2022-12-24T02:27:20;100674.50;;;8.28;92.38
76022;BME280;64718;52.124;6.226;2022-12-24T02:30:05;100678.06;;;8.25;92.44
76022;BME280;64718;52.124;6.226;2022-12-24T02:32:36;100680.59;;;8.27;92.34
76022;BME280;64718;52.124;6.226;2022-12-24T02:35:09;100688.06;;;8.36;91.62
76022;BME280;64718;52.124;6.226;2022-12-24T02:37:41;100696.09;;;8.28;92.17
76022;BME280;64718;52.124;6.226;2022-12-24T02:40:12;100696.81;;;8.32;92.20
76022;BME280;64718;52.124;6.226;2022-12-24T02:42:42;100703.81;;;8.30;92.11
76022;BME280;64718;52.124;6.226;2022-12-24T02:45:13;100703.13;;;8.24;92.28
76022;BME280;64718;52.124;6.226;2022-12-24T02:47:42;100710.09;;;8.22;92.35
76022;BME280;64718;52.124;6.226;2022-12-24T02:50:15;100712.81;;;8.19;92.58
76022;BME280;64718;52.124;6.226;2022-12-24T02:52:43;100717.47;;;8.08;93.24
76022;BME280;64718;52.124;6.226;2022-12-24T02:55:12;100718.53;;;8.03;93.71
76022;BME280;64718;52.124;6.226;2022-12-24T02:57:49;100723.88;;;7.98;93.74
76022;BME280;64718;52.124;6.226;2022-12-24T03:00:21;100724.19;;;7.89;93.89
76022;BME280;64718;52.124;6.226;2022-12-24T03:03:06;100722.53;;;7.86;94.13
76022;BME280;64718;52.124;6.226;2022-12-24T03:05:43;100717.38;;;7.86;94.14
76022;BME280;64718;52.124;6.226;2022-12-24T03:08:19;100731.91;;;7.90;94.04
76022;BME280;64718;52.124;6.226;2022-12-24T03:10:52;100725.97;;;7.87;93.91
76022;BME280;64718;52.124;6.226;2022-12-24T03:13:21;100729.78;;;7.77;94.35
76022;BME280;64718;52.124;6.226;2022-12-24T03:15:50;100741.50;;;7.87;93.78
76022;BME280;64718;52.124;6.226;2022-12-24T03:18:19;100734.94;;;7.77;94.04
76022;BME280;64718;52.124;6.226;2022-12-24T03:20:49;100731.63;;;7.73;94.27
76022;BME280;64718;52.124;6.226;2022-12-24T03:23:17;100738.19;;;7.83;93.73
76022;BME280;64718;52.124;6.226;2022-12-24T03:25:44;100722.50;;;7.88;93.21
76022;BME280;64718;52.124;6.226;2022-12-24T03:28:15;100729.53;;;7.84;93.21
76022;BME280;64718;52.124;6.226;2022-12-24T03:30:45;100730.47;;;7.82;93.39
76022;BME280;64718;52.124;6.226;2022-12-24T03:33:14;100727.13;;;7.78;93.54
76022;BME280;64718;52.124;6.226;2022-12-24T03:35:41;100729.47;;;7.86;93.01
76022;BME280;64718;52.124;6.226;2022-12-24T03:38:08;100735.59;;;7.83;93.25
76022;BME280;64718;52.124;6.226;2022-12-24T03:40:34;100734.59;;;7.87;93.23
76022;BME280;64718;52.124;6.226;2022-12-24T03:43:01;100738.81;;;7.90;92.45
76022;BME280;64718;52.124;6.226;2022-12-24T03:45:28;100747.00;;;7.78;93.22
76022;BME280;64718;52.124;6.226;2022-12-24T03:47:54;100744.69;;;7.95;93.15
76022;BME280;64718;52.124;6.226;2022-12-24T03:50:22;100756.69;;;7.98;92.90
76022;BME280;64718;52.124;6.226;2022-12-24T03:52:49;100746.69;;;7.87;93.37
76022;BME280;64718;52.124;6.226;2022-12-24T03:55:15;100759.69;;;7.85;93.56
76022;BME280;64718;52.124;6.226;2022-12-24T03:57:42;100752.72;;;7.87;93.95
76022;BME280;64718;52.124;6.226;2022-12-24T04:00:09;100763.97;;;7.86;94.01
76022;BME280;64718;52.124;6.226;2022-12-24T04:02:36;100760.53;;;7.86;93.97
76022;BME280;64718;52.124;6.226;2022-12-24T04:05:03;100766.66;;;7.83;94.58
76022;BME280;64718;52.124;6.226;2022-12-24T04:07:32;100770.00;;;7.87;94.21
76022;BME280;64718;52.124;6.226;2022-12-24T04:09:58;100766.16;;;7.99;94.37
76022;BME280;64718;52.124;6.226;2022-12-24T04:12:27;100764.03;;;8.11;93.79
76022;BME280;64718;52.124;6.226;2022-12-24T04:14:54;100761.50;;;8.08;93.99
76022;BME280;64718;52.124;6.226;2022-12-24T04:17:20;100763.38;;;8.05;94.38
76022;BME280;64718;52.124;6.226;2022-12-24T04:19:47;100764.88;;;8.12;94.51
76022;BME280;64718;52.124;6.226;2022-12-24T04:22:13;100779.56;;;8.11;94.07
76022;BME280;64718;52.124;6.226;2022-12-24T04:24:41;100781.97;;;8.17;94.42
76022;BME280;64718;52.124;6.226;2022-12-24T04:27:08;100777.47;;;8.22;94.30
76022;BME280;64718;52.124;6.226;2022-12-24T04:29:34;100772.19;;;8.25;94.40
76022;BME280;64718;52.124;6.226;2022-12-24T04:32:01;100776.72;;;8.19;94.28
76022;BME280;64718;52.124;6.226;2022-12-24T04:34:28;100773.13;;;8.23;94.62
76022;BME280;64718;52.124;6.226;2022-12-24T04:36:54;100776.50;;;8.25;94.90
76022;BME280;64718;52.124;6.226;2022-12-24T04:39:21;100779.91;;;8.27;94.35
76022;BME280;64718;52.124;6.226;2022-12-24T04:41:49;100784.06;;;8.31;94.42
76022;BME280;64718;52.124;6.226;2022-12-24T04:44:15;100789.81;;;8.41;94.65
76022;BME280;64718;52.124;6.226;2022-12-24T04:46:42;100789.78;;;8.42;94.35
76022;BME280;64718;52.124;6.226;2022-12-24T04:49:09;100786.06;;;8.49;94.45
76022;BME280;64718;52.124;6.226;2022-12-24T04:51:36;100794.56;;;8.53;94.29
76022;BME280;64718;52.124;6.226;2022-12-24T04:54:03;100802.31;;;8.54;94.21
76022;BME280;64718;52.124;6.226;2022-12-24T04:56:30;100808.13;;;8.61;94.29
76022;BME280;64718;52.124;6.226;2022-12-24T04:59:00;100789.19;;;8.59;93.83
76022;BME280;64718;52.124;6.226;2022-12-24T05:01:29;100797.44;;;8.70;93.42
76022;BME280;64718;52.124;6.226;2022-12-24T05:03:56;100804.22;;;8.74;93.69
76022;BME280;64718;52.124;6.226;2022-12-24T05:06:25;100798.88;;;8.79;92.92
76022;BME280;64718;52.124;6.226;2022-12-24T05:08:53;100801.34;;;8.82;93.24
76022;BME280;64718;52.124;6.226;2022-12-24T05:11:19;100802.31;;;8.79;93.55
76022;BME280;64718;52.124;6.226;2022-12-24T05:13:46;100803.72;;;8.88;92.98
76022;BME280;64718;52.124;6.226;2022-12-24T05:16:16;100794.47;;;8.81;93.55
76022;BME280;64718;52.124;6.226;2022-12-24T05:18:43;100799.38;;;8.88;93.48
76022;BME280;64718;52.124;6.226;2022-12-24T05:21:11;100809.88;;;8.85;93.67
76022;BME280;64718;52.124;6.226;2022-12-24T05:23:38;100813.31;;;8.86;93.70
76022;BME280;64718;52.124;6.226;2022-12-24T05:26:26;100807.03;;;8.92;93.68
76022;BME280;64718;52.124;6.226;2022-12-24T05:28:57;100818.03;;;8.98;92.94
76022;BME280;64718;52.124;6.226;2022-12-24T05:31:27;100805.34;;;8.91;93.83
76022;BME280;64718;52.124;6.226;2022-12-24T05:33:53;100808.75;;;8.93;93.25
76022;BME280;64718;52.124;6.226;2022-12-24T05:36:21;100811.44;;;8.90;93.85
76022;BME280;64718;52.124;6.226;2022-12-24T05:38:48;100814.66;;;8.96;93.02
76022;BME280;64718;52.124;6.226;2022-12-24T05:41:15;100822.31;;;8.99;93.74
76022;BME280;64718;52.124;6.226;2022-12-24T05:43:42;100828.41;;;8.98;93.55
76022;BME280;64718;52.124;6.226;2022-12-24T05:46:11;100827.41;;;9.02;93.43
76022;BME280;64718;52.124;6.226;2022-12-24T05:48:39;100828.38;;;9.00;93.34
76022;BME280;64718;52.124;6.226;2022-12-24T05:51:07;100817.94;;;9.01;92.90
76022;BME280;64718;52.124;6.226;2022-12-24T05:53:34;100826.44;;;9.05;92.72
76022;BME280;64718;52.124;6.226;2022-12-24T05:56:02;100823.69;;;9.09;92.74
76022;BME280;64718;52.124;6.226;2022-12-24T05:58:29;100827.97;;;9.10;92.69
76022;BME280;64718;52.124;6.226;2022-12-24T06:00:56;100830.34;;;9.16;92.66
76022;BME280;64718;52.124;6.226;2022-12-24T06:03:22;100829.50;;;9.16;92.45
76022;BME280;64718;52.124;6.226;2022-12-24T06:05:58;100834.75;;;9.14;92.94
76022;BME280;64718;52.124;6.226;2022-12-24T06:08:25;100836.31;;;9.18;93.21
76022;BME280;64718;52.124;6.226;2022-12-24T06:10:54;100821.81;;;9.13;93.89
76022;BME280;64718;52.124;6.226;2022-12-24T06:13:21;100825.16;;;9.16;93.39
76022;BME280;64718;52.124;6.226;2022-12-24T06:15:47;100823.28;;;9.20;93.82
76022;BME280;64718;52.124;6.226;2022-12-24T06:18:14;100832.19;;;9.13;94.25
76022;BME280;64718;52.124;6.226;2022-12-24T06:20:40;100833.38;;;9.04;94.70
76022;BME280;64718;52.124;6.226;2022-12-24T06:23:08;100836.16;;;9.00;94.92
76022;BME280;64718;52.124;6.226;2022-12-24T06:25:35;100843.97;;;8.98;95.26
76022;BME280;64718;52.124;6.226;2022-12-24T06:28:01;100850.03;;;8.99;95.17
76022;BME280;64718;52.124;6.226;2022-12-24T06:30:28;100862.94;;;9.00;95.25
76022;BME280;64718;52.124;6.226;2022-12-24T06:32:54;100853.13;;;9.08;94.52
76022;BME280;64718;52.124;6.226;2022-12-24T06:35:21;100851.75;;;8.98;95.57
76022;BME280;64718;52.124;6.226;2022-12-24T06:37:48;100865.53;;;9.00;95.63
76022;BME280;64718;52.124;6.226;2022-12-24T06:40:16;100867.97;;;9.05;95.47
76022;BME280;64718;52.124;6.226;2022-12-24T06:42:42;100867.84;;;9.08;95.14
76022;BME280;64718;52.124;6.226;2022-12-24T06:45:09;100873.03;;;9.08;95.37
76022;BME280;64718;52.124;6.226;2022-12-24T06:47:36;100881.44;;;9.14;94.70
76022;BME280;64718;52.124;6.226;2022-12-24T06:50:03;100883.19;;;9.14;94.97
76022;BME280;64718;52.124;6.226;2022-12-24T06:52:30;100887.47;;;9.15;94.99
76022;BME280;64718;52.124;6.226;2022-12-24T06:54:57;100886.41;;;9.20;94.48
76022;BME280;64718;52.124;6.226;2022-12-24T06:57:24;100890.03;;;9.16;94.86
76022;BME280;64718;52.124;6.226;2022-12-24T06:59:51;100894.25;;;9.19;94.92
76022;BME280;64718;52.124;6.226;2022-12-24T07:02:18;100891.03;;;9.12;95.25
76022;BME280;64718;52.124;6.226;2022-12-24T07:04:44;100899.66;;;9.13;94.93
76022;BME280;64718;52.124;6.226;2022-12-24T07:07:11;100895.44;;;9.10;95.27
76022;BME280;64718;52.124;6.226;2022-12-24T07:09:37;100887.59;;;9.12;94.76
76022;BME280;64718;52.124;6.226;2022-12-24T07:12:04;100898.06;;;9.09;95.63
76022;BME280;64718;52.124;6.226;2022-12-24T07:14:32;100896.34;;;9.09;95.53
76022;BME280;64718;52.124;6.226;2022-12-24T07:16:59;100897.19;;;9.10;96.04
76022;BME280;64718;52.124;6.226;2022-12-24T07:19:25;100901.53;;;9.09;96.06
76022;BME280;64718;52.124;6.226;2022-12-24T07:21:52;100899.09;;;9.05;96.55
76022;BME280;64718;52.124;6.226;2022-12-24T07:24:18;100911.06;;;9.09;96.19
76022;BME280;64718;52.124;6.226;2022-12-24T07:26:45;100908.63;;;9.04;96.22
76022;BME280;64718;52.124;6.226;2022-12-24T07:29:12;100911.22;;;9.04;96.35
76022;BME280;64718;52.124;6.226;2022-12-24T07:31:40;100916.88;;;9.15;95.10
76022;BME280;64718;52.124;6.226;2022-12-24T07:34:06;100909.19;;;9.12;95.03
76022;BME280;64718;52.124;6.226;2022-12-24T07:36:33;100913.69;;;9.07;95.56
76022;BME280;64718;52.124;6.226;2022-12-24T07:38:59;100911.06;;;9.09;95.58
76022;BME280;64718;52.124;6.226;2022-12-24T07:41:26;100912.69;;;9.11;95.18
76022;BME280;64718;52.124;6.226;2022-12-24T07:43:52;100918.50;;;9.18;94.48
76022;BME280;64718;52.124;6.226;2022-12-24T07:46:19;100929.78;;;9.17;94.54
76022;BME280;64718;52.124;6.226;2022-12-24T07:48:47;100933.13;;;9.20;94.26
76022;BME280;64718;52.124;6.226;2022-12-24T07:51:13;100934.75;;;9.23;94.34
76022;BME280;64718;52.124;6.226;2022-12-24T07:53:40;100937.31;;;9.25;93.74
76022;BME280;64718;52.124;6.226;2022-12-24T07:56:12;100935.38;;;9.31;93.19
76022;BME280;64718;52.124;6.226;2022-12-24T07:58:38;100942.50;;;9.25;93.95
76022;BME280;64718;52.124;6.226;2022-12-24T08:01:05;100959.72;;;9.27;93.19
76022;BME280;64718;52.124;6.226;2022-12-24T08:03:31;100967.59;;;9.24;93.91
76022;BME280;64718;52.124;6.226;2022-12-24T08:05:59;100968.56;;;9.22;93.53
76022;BME280;64718;52.124;6.226;2022-12-24T08:08:26;100981.59;;;9.20;93.96
76022;BME280;64718;52.124;6.226;2022-12-24T08:10:53;100981.47;;;9.23;93.12
76022;BME280;64718;52.124;6.226;2022-12-24T08:13:19;100989.31;;;9.22;93.52
76022;BME280;64718;52.124;6.226;2022-12-24T08:15:46;100996.19;;;9.23;93.48
76022;BME280;64718;52.124;6.226;2022-12-24T08:18:12;101002.00;;;9.31;92.49
76022;BME280;64718;52.124;6.226;2022-12-24T08:20:40;101010.53;;;9.34;92.47
76022;BME280;64718;52.124;6.226;2022-12-24T08:23:08;101006.97;;;9.37;92.40
76022;BME280;64718;52.124;6.226;2022-12-24T08:25:35;101013.06;;;9.36;92.44
76022;BME280;64718;52.124;6.226;2022-12-24T08:28:02;101013.19;;;9.33;92.02
76022;BME280;64718;52.124;6.226;2022-12-24T08:30:29;101022.44;;;9.40;91.43
76022;BME280;64718;52.124;6.226;2022-12-24T08:32:55;101022.41;;;9.41;90.96
76022;BME280;64718;52.124;6.226;2022-12-24T08:35:22;101021.59;;;9.39;91.22
76022;BME280;64718;52.124;6.226;2022-12-24T08:37:48;101025.88;;;9.40;90.91
76022;BME280;64718;52.124;6.226;2022-12-24T08:40:16;101025.09;;;9.38;91.00
76022;BME280;64718;52.124;6.226;2022-12-24T08:42:43;101029.34;;;9.41;91.06
76022;BME280;64718;52.124;6.226;2022-12-24T08:45:10;101034.38;;;9.45;90.72
76022;BME280;64718;52.124;6.226;2022-12-24T08:47:37;101037.88;;;9.44;90.35
76022;BME280;64718;52.124;6.226;2022-12-24T08:50:05;101029.06;;;9.48;90.02
76022;BME280;64718;52.124;6.226;2022-12-24T08:52:32;101031.88;;;9.42;90.64
76022;BME280;64718;52.124;6.226;2022-12-24T08:54:58;101052.66;;;9.42;91.23
76022;BME280;64718;52.124;6.226;2022-12-24T08:57:26;101050.91;;;9.43;90.84
76022;BME280;64718;52.124;6.226;2022-12-24T08:59:53;101052.59;;;9.44;91.21
76022;BME280;64718;52.124;6.226;2022-12-24T09:02:20;101064.81;;;9.40;91.28
76022;BME280;64718;52.124;6.226;2022-12-24T09:04:46;101060.31;;;9.45;91.00
76022;BME280;64718;52.124;6.226;2022-12-24T09:07:13;101067.94;;;9.50;90.69
76022;BME280;64718;52.124;6.226;2022-12-24T09:09:39;101065.34;;;9.50;90.28
76022;BME280;64718;52.124;6.226;2022-12-24T09:12:07;101068.69;;;9.54;90.38
76022;BME280;64718;52.124;6.226;2022-12-24T09:14:35;101073.94;;;9.52;90.56
76022;BME280;64718;52.124;6.226;2022-12-24T09:17:02;101068.91;;;9.47;91.12
76022;BME280;64718;52.124;6.226;2022-12-24T09:19:28;101084.44;;;9.49;90.51
76022;BME280;64718;52.124;6.226;2022-12-24T09:21:55;101082.56;;;9.52;90.55
76022;BME280;64718;52.124;6.226;2022-12-24T09:24:21;101092.91;;;9.54;90.52
76022;BME280;64718;52.124;6.226;2022-12-24T09:26:48;101094.75;;;9.50;91.36
76022;BME280;64718;52.124;6.226;2022-12-24T09:29:15;101097.25;;;9.54;91.17
76022;BME280;64718;52.124;6.226;2022-12-24T09:31:43;101092.06;;;9.54;90.77
76022;BME280;64718;52.124;6.226;2022-12-24T09:34:09;101106.53;;;9.61;91.01
76022;BME280;64718;52.124;6.226;2022-12-24T09:36:36;101107.81;;;9.74;90.15
76022;BME280;64718;52.124;6.226;2022-12-24T09:39:03;101111.31;;;9.73;89.87
76022;BME280;64718;52.124;6.226;2022-12-24T09:41:39;101106.94;;;9.73;89.49
76022;BME280;64718;52.124;6.226;2022-12-24T09:44:16;101112.25;;;9.70;90.21
76022;BME280;64718;52.124;6.226;2022-12-24T09:46:48;101116.81;;;9.64;90.04
76022;BME280;64718;52.124;6.226;2022-12-24T09:49:18;101121.91;;;9.67;90.20
76022;BME280;64718;52.124;6.226;2022-12-24T09:51:48;101127.03;;;9.68;89.85
76022;BME280;64718;52.124;6.226;2022-12-24T09:54:19;101125.13;;;9.73;89.85
76022;BME280;64718;52.124;6.226;2022-12-24T09:56:47;101134.63;;;9.74;89.75
76022;BME280;64718;52.124;6.226;2022-12-24T09:59:17;101126.72;;;9.77;89.37
76022;BME280;64718;52.124;6.226;2022-12-24T10:01:48;101138.00;;;9.76;88.80
76022;BME280;64718;52.124;6.226;2022-12-24T10:04:17;101145.81;;;9.76;88.59
76022;BME280;64718;52.124;6.226;2022-12-24T10:06:49;101147.94;;;9.65;89.14
76022;BME280;64718;52.124;6.226;2022-12-24T10:09:24;101143.94;;;9.55;89.55
76022;BME280;64718;52.124;6.226;2022-12-24T10:11:59;101146.44;;;9.58;89.65
76022;BME280;64718;52.124;6.226;2022-12-24T10:14:39;101148.25;;;9.56;89.72
76022;BME280;64718;52.124;6.226;2022-12-24T10:17:21;101149.53;;;9.69;89.59
76022;BME280;64718;52.124;6.226;2022-12-24T10:19:58;101148.41;;;9.76;88.98
76022;BME280;64718;52.124;6.226;2022-12-24T10:22:33;101148.47;;;9.75;88.82
76022;BME280;64718;52.124;6.226;2022-12-24T10:25:03;101152.00;;;9.72;88.50
76022;BME280;64718;52.124;6.226;2022-12-24T10:27:34;101158.69;;;9.79;88.37
76022;BME280;64718;52.124;6.226;2022-12-24T10:30:11;101149.75;;;9.88;88.58
76022;BME280;64718;52.124;6.226;2022-12-24T10:32:40;101152.84;;;9.99;87.70
76022;BME280;64718;52.124;6.226;2022-12-24T10:35:18;101149.53;;;9.94;87.61
76022;BME280;64718;52.124;6.226;2022-12-24T10:37:47;101148.81;;;9.91;87.89
76022;BME280;64718;52.124;6.226;2022-12-24T10:40:22;101150.06;;;10.04;87.98
76022;BME280;64718;52.124;6.226;2022-12-24T10:42:49;101141.94;;;10.13;86.87
76022;BME280;64718;52.124;6.226;2022-12-24T10:45:20;101155.03;;;10.10;87.31
76022;BME280;64718;52.124;6.226;2022-12-24T10:47:50;101147.75;;;9.96;87.33
76022;BME280;64718;52.124;6.226;2022-12-24T10:50:26;101149.81;;;9.87;86.82
76022;BME280;64718;52.124;6.226;2022-12-24T10:52:59;101160.50;;;9.77;86.83
76022;BME280;64718;52.124;6.226;2022-12-24T10:55:27;101163.03;;;9.79;86.93
76022;BME280;64718;52.124;6.226;2022-12-24T10:57:59;101158.75;;;9.78;87.42
76022;BME280;64718;52.124;6.226;2022-12-24T11:00:27;101166.38;;;9.82;87.64
76022;BME280;64718;52.124;6.226;2022-12-24T11:03:22;101167.91;;;9.90;86.76
76022;BME280;64718;52.124;6.226;2022-12-24T11:06:06;101158.19;;;9.95;86.44
76022;BME280;64718;52.124;6.226;2022-12-24T11:08:33;101165.47;;;9.85;87.41
76022;BME280;64718;52.124;6.226;2022-12-24T11:11:02;101167.22;;;9.85;86.65
76022;BME280;64718;52.124;6.226;2022-12-24T11:13:30;101161.00;;;9.89;86.35
76022;BME280;64718;52.124;6.226;2022-12-24T11:15:59;101158.50;;;10.10;86.48
76022;BME280;64718;52.124;6.226;2022-12-24T11:18:27;101157.19;;;10.24;85.87
76022;BME280;64718;52.124;6.226;2022-12-24T11:20:54;101159.72;;;10.00;86.08
76022;BME280;64718;52.124;6.226;2022-12-24T11:23:24;101166.53;;;9.78;87.57
76022;BME280;64718;52.124;6.226;2022-12-24T11:25:50;101157.56;;;9.62;88.07
76022;BME280;64718;52.124;6.226;2022-12-24T11:28:20;101162.06;;;9.57;87.93
76022;BME280;64718;52.124;6.226;2022-12-24T11:30:57;101165.47;;;9.59;87.85
76022;BME280;64718;52.124;6.226;2022-12-24T11:33:24;101160.78;;;9.43;88.40
76022;BME280;64718;52.124;6.226;2022-12-24T11:35:55;101162.91;;;9.57;86.85
76022;BME280;64718;52.124;6.226;2022-12-24T11:38:24;101172.63;;;9.52;87.68
76022;BME280;64718;52.124;6.226;2022-12-24T11:40:58;101171.59;;;9.56;87.85
76022;BME280;64718;52.124;6.226;2022-12-24T11:43:25;101174.78;;;9.64;87.54
76022;BME280;64718;52.124;6.226;2022-12-24T11:46:12;101180.03;;;9.63;87.37
76022;BME280;64718;52.124;6.226;2022-12-24T11:48:39;101177.88;;;9.75;86.83
76022;BME280;64718;52.124;6.226;2022-12-24T11:51:19;101179.41;;;9.81;86.16
76022;BME280;64718;52.124;6.226;2022-12-24T11:53:49;101182.13;;;9.78;85.78
76022;BME280;64718;52.124;6.226;2022-12-24T11:56:27;101173.63;;;9.73;86.37
76022;BME280;64718;52.124;6.226;2022-12-24T11:59:00;101179.84;;;9.69;86.18
76022;BME280;64718;52.124;6.226;2022-12-24T12:01:32;101182.75;;;9.60;86.81
76022;BME280;64718;52.124;6.226;2022-12-24T12:04:03;101186.38;;;9.54;87.17
76022;BME280;64718;52.124;6.226;2022-12-24T12:06:36;101179.56;;;9.51;86.99
76022;BME280;64718;52.124;6.226;2022-12-24T12:09:05;101181.84;;;9.61;86.84
76022;BME280;64718;52.124;6.226;2022-12-24T12:11:37;101179.72;;;9.72;86.17
76022;BME280;64718;52.124;6.226;2022-12-24T12:14:08;101187.38;;;9.76;86.12
76022;BME280;64718;52.124;6.226;2022-12-24T12:16:46;101194.94;;;9.82;85.48
76022;BME280;64718;52.124;6.226;2022-12-24T12:19:31;101201.09;;;9.80;85.71
76022;BME280;64718;52.124;6.226;2022-12-24T12:22:03;101201.56;;;9.66;86.83
76022;BME280;64718;52.124;6.226;2022-12-24T12:24:35;101195.41;;;9.69;86.47
76022;BME280;64718;52.124;6.226;2022-12-24T12:27:09;101198.97;;;9.93;86.60
76022;BME280;64718;52.124;6.226;2022-12-24T12:29:42;101198.16;;;10.15;85.35
76022;BME280;64718;52.124;6.226;2022-12-24T12:32:15;101209.31;;;10.19;85.75
76022;BME280;64718;52.124;6.226;2022-12-24T12:35:04;101208.28;;;10.25;85.36
76022;BME280;64718;52.124;6.226;2022-12-24T12:37:39;101217.38;;;10.36;84.46
76022;BME280;64718;52.124;6.226;2022-12-24T12:40:11;101215.50;;;10.41;84.88
76022;BME280;64718;52.124;6.226;2022-12-24T12:42:39;101219.69;;;10.45;83.81
76022;BME280;64718;52.124;6.226;2022-12-24T12:45:20;101220.38;;;10.51;83.67
76022;BME280;64718;52.124;6.226;2022-12-24T12:48:08;101216.00;;;10.51;83.80
76022;BME280;64718;52.124;6.226;2022-12-24T12:50:44;101225.63;;;10.49;83.48
76022;BME280;64718;52.124;6.226;2022-12-24T12:53:28;101211.50;;;10.56;81.49
76022;BME280;64718;52.124;6.226;2022-12-24T12:56:01;101225.97;;;10.63;81.22
76022;BME280;64718;52.124;6.226;2022-12-24T12:58:36;101218.38;;;10.57;81.31
76022;BME280;64718;52.124;6.226;2022-12-24T13:01:08;101231.06;;;10.66;81.20
76022;BME280;64718;52.124;6.226;2022-12-24T13:04:00;101235.63;;;10.83;80.98
76022;BME280;64718;52.124;6.226;2022-12-24T13:06:45;101244.13;;;10.65;80.78
76022;BME280;64718;52.124;6.226;2022-12-24T13:12:35;101241.78;;;10.07;82.27
76022;BME280;64718;52.124;6.226;2022-12-24T13:15:28;101238.78;;;9.93;82.35
76022;BME280;64718;52.124;6.226;2022-12-24T13:18:09;101246.03;;;9.83;82.44
76022;BME280;64718;52.124;6.226;2022-12-24T13:20:41;101244.88;;;9.66;82.99